Hit Tracker is now ESPN Home Run Tracker! Hit Tracker founder Greg Rybarczyk is now collaborating with the ESPN Stats & Information Group to continue tracking all MLB home runs, and helping baseball fans know "How Far It Really Went!™" Please credit any information on this site to ESPN Stats & Information Group. For more information and analysis on home runs, please contact founder Greg Rybarczyk. E-Mail ESPN Home Run Tracker
Main Page | Ballparks | Park Overlays | Glossary | Highlight Homers | Feedback | Bio | 3 Types of HR's | AAA Home Run Derby Last Updated: May 25, 2015, 9:40 pm PST
Welcome to the ESPN Home Run Tracker! Check out the ESPN MLB Scoreboard throughout the 2014 season! Contact us at grybar@hittrackeronline.com.
Season:
Ballpark detail for Rogers Centre
Ballpark # of Home Runs HR per game Avg.
True
Distance
Avg.
Speed
Off
Bat
Avg.
Std.
Dist.
Rogers Centre 57 2.38 409.9 106.8 409.1

Scatter Plot of Home Runs Rogers Centre
 Overlay Ballpark:
Without range rings   With range rings

2015 Season Home Runs for Rogers Centre
Click headers to sort
Date Video Path Hitter Hitter
Team
 ^
Pitcher Pitcher
Team
INN Ballpark Type/
Luck
True
Dist.
Speed
Off
Bat
Elev.
Angle
Horiz.
Angle
Apex Impact Due To: Std.
Dist.
#
Parks
Wind Temp. Alt.
04/17/15 Video View Gomes, Jonny ATL Cecil, Brett TOR 8 Rogers Centr... PL 431 110.2 21.2 96.0 69 0 0 0 431 28
04/17/15 Video View Freeman, Freddie ATL Cecil, Brett TOR 8 Rogers Centr... ND 426 108.8 32.0 71.2 126 0 0 1 425 30
04/18/15 Video View Freeman, Freddie ATL Dickey, R.A. TOR 3 Rogers Centr... PL 437 108.1 25.4 81.0 91 0 0 1 436 30
04/18/15 Video View Pierzynski, A.J. ATL Dickey, R.A. TOR 4 Rogers Centr... JE 365 109.2 20.6 62.9 48 0 0 0 364 11
04/18/15 Video View Johnson, Kelly ATL Castro, Miguel TOR 9 Rogers Centr... JE 411 101.7 30.9 84.3 114 0 -1 1 410 21
04/22/15 Video View Paredes, Jimmy BAL Sanchez, Aaron TOR 3 Rogers Centr... JE 405 105.4 23.1 100.5 69 0 0 0 405 24
04/23/15 Video View Machado, Manny BAL Hutchison, Drew TOR 6 Rogers Centr... PL 388 111.3 22.4 120.7 57 0 0 1 387 30
04/23/15 Video View Machado, Manny BAL Castro, Miguel TOR 9 Rogers Centr... ND 422 110.1 28.8 117.6 95 0 0 1 422 30
05/10/15 Video View Napoli, Mike BOS Dickey, R.A. TOR 1 Rogers Centr... PL 425 105.1 30.6 98.9 119 0 0 1 424 30
05/10/15 Video View Sandoval, Pablo BOS Dickey, R.A. TOR 5 Rogers Centr... PL 405 104.4 24.6 78.2 76 0 0 0 405 27
05/18/15 Video View Pujols, Albert LAA Redmond, Todd TOR 4 Rogers Centr... ND 426 111.6 27.4 117.3 89 0 -1 1 427 30
05/18/15 Video View Freese, David LAA Tepera, Ryan TOR 6 Rogers Centr... JE 383 99.6 28.2 73.8 85 0 -1 0 383 26
05/20/15 Video View Trout, Mike LAA Hutchison, Drew TOR 5 Rogers Centr... JE 423 106.9 21.9 92.7 72 0 0 0 423 24
05/18/15 Video View Iannetta, Chris LAA Loup, Aaron TOR 8 Rogers Centr... PL 438 113.9 21.0 99.8 68 0 -1 0 439 30
05/19/15 Video View Calhoun, Kole LAA Sanchez, Aaron TOR 4 Rogers Centr... PL 356 102.2 25.2 124.3 59 0 0 1 356 24
05/21/15 Video View Krauss, Marc LAA Dickey, R.A. TOR 1 Rogers Centr... ND 431 112.6 25.2 67.4 80 0 0 0 430 30
05/21/15 Video View Freese, David LAA Dickey, R.A. TOR 9 Rogers Centr... PL 419 102.9 27.8 85.3 99 0 0 1 418 24
05/05/15 Video View Teixeira, Mark NYY Estrada, Marco TOR 5 Rogers Centr... PL 433 106.8 26.5 81.5 96 0 0 1 433 30
05/22/15 Video View Cruz, Nelson SEA Estrada, Marco TOR 6 Rogers Centr... JE 421 108.4 20.8 86.1 66 0 0 0 421 23
05/23/15 Video View Seager, Kyle SEA Buehrle, Mark TOR 2 Rogers Centr... ND 408 108.3 28.3 61.0 88 0 -2 1 410 30
05/24/15 Video View Seager, Kyle SEA Sanchez, Aaron TOR 2 Rogers Centr... PL 416 104.9 28.6 75.4 99 0 0 1 415 30
04/14/15 Video View Souza Jr., Steven TB Norris, Daniel TOR 1 Rogers Centr... ND 463 110.8 29.3 91.9 130 0 0 1 463 30
04/15/15 Video View Souza Jr., Steven TB Buehrle, Mark TOR 5 Rogers Centr... ND 412 107.4 31.5 115.9 109 0 0 1 412 30
04/15/15 Video View Mahtook, Mikie TB Buehrle, Mark TOR 6 Rogers Centr... PL 422 105.4 25.4 98.5 86 0 0 0 422 30
04/16/15 Video View Beckham, Tim TB Loup, Aaron TOR 6 Rogers Centr... PL 359 103.5 24.7 125.7 58 0 0 0 358 29
05/18/15 Video View Bautista, Jose TOR Ramos, Cesar LAA 7 Rogers Centr... ND 445 117.2 26.4 121.0 87 0 -1 1 445 30
05/09/15 Video View Encarnacion, Edwin TOR Kelly, Joe BOS 4 Rogers Centr... ND 412 111.3 24.9 117.4 73 0 -1 1 413 30
05/19/15 Video View Donaldson, Josh TOR Santiago, Hector LAA 1 Rogers Centr... JE 410 101.2 28.9 84.9 101 0 0 1 409 18
05/08/15 Video View Donaldson, Josh TOR Miley, Wade BOS 1 Rogers Centr... ND 434 110.3 30.6 113.9 111 5 -1 1 429 30
05/08/15 Video View Colabello, Chris TOR Miley, Wade BOS 2 Rogers Centr... JE 395 106.5 23.2 73.2 65 0 0 1 395 27
05/05/15 Video View Martin, Russell TOR Carpenter, David NYY 9 Rogers Centr... JE 359 96.0 31.5 113.4 89 0 0 1 358 12
05/06/15 Video View Martin, Russell TOR Sabathia, CC NYY 6 Rogers Centr... JE 378 103.0 24.5 109.5 65 0 -1 0 379 20
05/21/15 Video View Valencia, Danny TOR Shoemaker, Matt LAA 3 Rogers Centr... JE 348 97.1 29.1 56.4 71 0 0 0 348 24
05/21/15 Video View Encarnacion, Edwin TOR Shoemaker, Matt LAA 5 Rogers Centr... ND 426 111.5 23.0 105.5 72 0 0 0 426 30
04/15/15 Video View Bautista, Jose TOR Ramirez, Erasmo TB 1 Rogers Centr... PL 369 100.1 36.6 109.6 131 0 0 1 368 24
04/15/15 Video View Travis, Devon TOR Beliveau, Jeff TB 5 Rogers Centr... PL 369 97.8 30.2 112.4 86 0 0 1 368 19
04/15/15 Video View Pompey, Dalton TOR Frieri, Ernesto TB 7 Rogers Centr... ND 421 108.8 30.4 65.3 106 0 -1 1 420 30
04/17/15 Video View Travis, Devon TOR Teheran, Julio ATL 1 Rogers Centr... PL 427 104.9 25.2 89.4 88 0 0 0 427 26
04/17/15 Video View Martin, Russell TOR Teheran, Julio ATL 2 Rogers Centr... PL 443 109.2 23.4 85.8 84 0 0 0 443 30
04/17/15 Video View Donaldson, Josh TOR Teheran, Julio ATL 3 Rogers Centr... PL 375 101.8 26.8 64.9 72 0 0 1 375 27
04/17/15 Video View Donaldson, Josh TOR Teheran, Julio ATL 5 Rogers Centr... JE 416 108.2 21.1 83.4 65 0 0 0 415 21
04/17/15 Video View Martin, Russell TOR Johnson, Jim ATL 8 Rogers Centr... PL 406 105.7 25.4 73.1 77 0 0 0 405 30
04/18/15 Video View Bautista, Jose TOR Johnson, Jim ATL 8 Rogers Centr... ND 396 104.6 33.8 113.6 121 0 0 1 395 30
04/18/15 Video View Donaldson, Josh TOR Marimon, Sugar Ray ATL 10 Rogers Centr... PL 377 101.3 35.5 111.5 126 0 -1 1 377 30
04/21/15 Video View Encarnacion, Edwin TOR Norris, Bud BAL 2 Rogers Centr... PL 425 107.8 21.2 91.7 69 0 0 0 425 25
04/21/15 Video View Encarnacion, Edwin TOR Matusz, Brian BAL 6 Rogers Centr... ND 463 117.9 28.3 115.5 108 0 -1 1 463 30
04/21/15 Video View Bautista, Jose TOR Garcia, Jason BAL 7 Rogers Centr... PL 412 112.6 21.4 107.1 61 0 0 0 412 30
04/22/15 Video View Smoak, Justin TOR Jimenez, Ubaldo BAL 4 Rogers Centr... JE 397 108.7 21.0 103.0 58 0 0 0 397 18
04/22/15 Video View Travis, Devon TOR Jimenez, Ubaldo BAL 5 Rogers Centr... PL 429 106.3 23.7 92.2 81 0 0 1 429 25
04/23/15 Video View Donaldson, Josh TOR Tillman, Chris BAL 3 Rogers Centr... ND 469 120.5 24.1 111.4 85 0 0 1 468 30
05/22/15 Video View Encarnacion, Edwin TOR Hernandez, Felix SEA 1 Rogers Centr... PL 390 102.3 26.3 107.3 77 0 0 0 390 30
05/22/15 Video View Colabello, Chris TOR Rodney, Fernando SEA 9 Rogers Centr... ND 396 104.0 29.6 115.4 91 0 0 1 395 30
05/23/15 Video View Colabello, Chris TOR Paxton, James SEA 4 Rogers Centr... ND 411 110.0 24.9 113.7 74 0 -1 0 412 30
05/24/15 Video View Goins, Ryan TOR Walker, Taijuan SEA 5 Rogers Centr... ND 395 104.1 29.8 63.2 91 0 0 1 394 30
05/24/15 Video View Encarnacion, Edwin TOR Walker, Taijuan SEA 5 Rogers Centr... ND 431 108.5 33.4 107.7 135 10 1 2 419 30
05/25/15 Video View Smoak, Justin TOR Noesi, Hector CHW 1 Rogers Centr... PL 364 96.8 37.6 65.7 121 17 -2 1 347 11
05/25/15 Video View Donaldson, Josh TOR Noesi, Hector CHW 2 Rogers Centr... ND 452 112.2 21.9 85.3 79 0 -1 0 452 30


About HitTracker | Contact Us
© 2006-2015 HitTrackerOnline